Time;durP1;ratioP1;P1;durP2;ratioP2;P2;SDS_P1;SDS_P2;PMS_P1;PMS_P2;Temp;Humidity;BMP_temperature;BMP_pressure;BME280_temperature;BME280_humidity;BME280_pressure;Samples;Min_cycle;Max_cycle;Signal;HPM_P1;HPM_P2
2022/05/15 00:02:10;;;;;;;10.20;5.47;;;;;;;19.61;58.42;100029.56;5108529;28;20135;-68
2022/05/15 00:04:37;;;;;;;5.43;3.42;;;;;;;19.71;58.13;100009.28;5114540;28;20082;-68
2022/05/15 00:07:05;;;;;;;9.88;4.97;;;;;;;19.81;58.00;100033.50;5110308;28;20477;-68
2022/05/15 00:09:32;;;;;;;7.45;5.03;;;;;;;19.76;58.06;100040.22;5114022;28;20116;-67
2022/05/15 00:11:59;;;;;;;11.55;3.97;;;;;;;19.77;58.09;100029.72;5114042;28;20138;-67
2022/05/15 00:14:26;;;;;;;7.40;3.95;;;;;;;19.85;57.75;100018.25;5112196;28;20135;-67
2022/05/15 00:16:53;;;;;;;11.18;7.70;;;;;;;19.65;59.03;100011.53;5112442;28;20142;-67
2022/05/15 00:19:20;;;;;;;10.38;4.63;;;;;;;19.48;59.81;100028.72;5114398;28;20047;-67
2022/05/15 00:21:47;;;;;;;16.63;4.75;;;;;;;19.57;59.40;100009.63;5111970;28;20451;-67
2022/05/15 00:24:14;;;;;;;10.52;4.03;;;;;;;19.60;59.45;100014.59;5112522;28;20497;-66
2022/05/15 00:26:41;;;;;;;16.67;5.15;;;;;;;19.55;59.79;100006.31;5093966;28;20072;-66
2022/05/15 00:29:08;;;;;;;12.40;5.97;;;;;;;19.71;59.23;100009.28;5106816;28;20075;-66
2022/05/15 00:31:36;;;;;;;16.98;6.75;;;;;;;19.63;59.55;100013.09;5113840;28;20529;-66
2022/05/15 00:34:03;;;;;;;11.00;4.88;;;;;;;19.28;60.46;99990.88;5113987;28;20589;-67
2022/05/15 00:36:30;;;;;;;13.48;6.20;;;;;;;19.47;60.30;100012.94;5109386;28;20132;-67
2022/05/15 00:38:58;;;;;;;4.85;3.78;;;;;;;19.46;60.43;99993.47;5113258;28;20081;-68
2022/05/15 00:41:26;;;;;;;14.52;11.18;;;;;;;19.33;61.80;100001.13;5114104;28;20052;-67
2022/05/15 00:43:55;;;;;;;13.10;10.05;;;;;;;19.27;61.76;99979.91;5111429;28;20043;-67
2022/05/15 00:46:28;;;;;;;13.07;10.93;;;;;;;19.44;61.31;100004.31;5112037;28;20513;-66
2022/05/15 00:48:57;;;;;;;12.55;10.27;;;;;;;19.40;61.52;99981.56;5113968;28;20053;-67
2022/05/15 00:51:57;;;;;;;17.02;12.45;;;;;;;19.58;60.81;99999.13;5112901;28;20075;-66
2022/05/15 00:54:39;;;;;;;22.80;11.05;;;;;;;19.50;60.59;99966.09;5101159;28;20071;-67
2022/05/15 00:57:13;;;;;;;12.80;11.48;;;;;;;19.63;60.46;99982.75;5112725;28;20474;-67
2022/05/15 00:59:51;;;;;;;14.57;10.02;;;;;;;19.48;61.12;99983.44;5113774;28;20079;-67
2022/05/15 01:02:19;;;;;;;11.02;3.47;;;;;;;19.40;61.18;99975.88;5111558;28;20075;-67
2022/05/15 01:04:48;;;;;;;;;;;;;;;19.17;62.02;99984.81;5113844;28;20048;-68
2022/05/15 01:07:15;;;;;;;9.52;4.15;;;;;;;19.29;61.22;99989.69;5109760;28;19966;-68
2022/05/15 01:09:42;;;;;;;12.93;3.20;;;;;;;19.47;60.78;99980.97;5113462;28;20553;-68
2022/05/15 01:12:11;;;;;;;7.10;3.67;;;;;;;19.31;61.49;99984.47;5112527;28;20086;-68
2022/05/15 01:14:46;;;;;;;7.13;3.70;;;;;;;18.83;62.26;99956.97;5113725;28;20110;-68
2022/05/15 01:17:14;;;;;;;7.72;3.40;;;;;;;18.85;62.80;99975.25;5111638;28;20131;-67
2022/05/15 01:19:43;;;;;;;16.38;6.70;;;;;;;18.82;62.57;99961.78;5112020;28;20134;-67
2022/05/15 01:22:15;;;;;;;12.38;4.10;;;;;;;18.93;61.88;99962.16;5111451;28;20051;-68
2022/05/15 01:24:43;;;;;;;8.48;3.58;;;;;;;18.97;61.11;99974.44;5113489;28;20070;-68
2022/05/15 01:27:12;;;;;;;10.40;3.22;;;;;;;19.21;60.40;99972.81;5113025;28;20134;-68
2022/05/15 01:29:47;;;;;;;8.60;3.72;;;;;;;19.20;60.32;99962.66;5112343;28;20135;-67
2022/05/15 01:32:14;;;;;;;6.38;2.17;;;;;;;19.17;59.35;99956.53;5111399;28;20126;-68
2022/05/15 01:34:41;;;;;;;11.15;3.33;;;;;;;19.23;59.10;99959.97;5113069;28;20139;-68
2022/05/15 01:37:09;;;;;;;9.57;3.75;;;;;;;19.25;58.42;99954.78;5110104;28;20536;-67
2022/05/15 01:39:37;;;;;;;8.48;3.65;;;;;;;19.12;58.37;99944.63;5112602;28;20139;-67
2022/05/15 01:42:05;;;;;;;7.03;2.55;;;;;;;19.12;57.90;99947.47;5112334;28;20082;-68
2022/05/15 01:44:32;;;;;;;7.43;3.53;;;;;;;19.06;57.87;99935.53;5112403;28;20048;-68
2022/05/15 01:46:59;;;;;;;10.82;3.70;;;;;;;19.04;58.03;99948.38;5111991;28;20130;-67
2022/05/15 01:49:26;;;;;;;8.30;3.67;;;;;;;19.03;57.96;99927.75;5110656;28;20090;-69
2022/05/15 01:51:53;;;;;;;6.50;3.08;;;;;;;19.05;57.54;99948.03;5112153;28;20134;-69
2022/05/15 01:54:20;;;;;;;7.72;3.10;;;;;;;19.03;57.54;99949.56;5112976;28;20131;-68
2022/05/15 01:56:47;;;;;;;8.32;4.03;;;;;;;18.98;57.42;99935.66;5112945;28;20468;-68
2022/05/15 01:59:14;;;;;;;7.60;2.00;;;;;;;19.20;57.42;99948.53;5111648;28;20572;-68
2022/05/15 02:01:41;;;;;;;8.45;3.28;;;;;;;19.11;57.63;99929.66;5113110;28;20117;-68
2022/05/15 02:04:08;;;;;;;7.22;3.45;;;;;;;19.15;58.05;99929.78;5112681;28;20541;-67
2022/05/15 02:06:36;;;;;;;9.90;4.15;;;;;;;19.23;57.60;99945.81;5111568;28;20469;-67
2022/05/15 02:09:04;;;;;;;8.93;3.58;;;;;;;19.17;57.30;99913.25;5112915;28;20105;-68
2022/05/15 02:11:31;;;;;;;10.80;3.58;;;;;;;19.21;57.57;99933.19;5111975;28;20172;-68
2022/05/15 02:13:58;;;;;;;8.30;3.97;;;;;;;19.23;57.89;99933.66;5112689;28;20075;-68
2022/05/15 02:16:25;;;;;;;7.97;4.35;;;;;;;19.25;58.02;99943.47;5111650;28;20090;-69
2022/05/15 02:18:52;;;;;;;5.47;2.75;;;;;;;19.30;57.87;99929.06;5112588;28;20091;-68
2022/05/15 02:21:19;;;;;;;8.05;2.40;;;;;;;19.25;57.72;99923.66;5112948;28;20116;-68
2022/05/15 02:23:46;;;;;;;9.02;3.08;;;;;;;19.17;57.96;99916.91;5112084;28;20139;-69
2022/05/15 02:26:13;;;;;;;8.63;3.22;;;;;;;19.32;58.17;99923.88;5094624;28;20573;-68
2022/05/15 02:28:40;;;;;;;14.70;4.22;;;;;;;19.36;57.57;99929.66;5112815;28;20157;-68
2022/05/15 02:31:08;;;;;;;8.80;3.70;;;;;;;19.30;57.66;99929.06;5112086;28;20124;-68
2022/05/15 02:33:35;;;;;;;6.80;2.78;;;;;;;19.07;58.08;99914.53;5114429;28;20119;-67
2022/05/15 02:36:02;;;;;;;7.90;3.10;;;;;;;18.98;58.31;99901.72;5116117;28;20134;-67
2022/05/15 02:38:29;;;;;;;6.75;3.05;;;;;;;18.98;58.55;99910.19;5114905;28;20055;-67
2022/05/15 02:40:56;;;;;;;7.65;2.83;;;;;;;19.09;58.30;99903.72;5114290;28;20082;-67
2022/05/15 02:43:22;;;;;;;7.93;2.85;;;;;;;18.96;59.15;99921.84;5116389;28;20146;-68
2022/05/15 02:45:49;;;;;;;7.25;3.60;;;;;;;19.08;58.49;99950.16;5116084;28;20138;-68
2022/05/15 02:51:05;;;;;;;7.75;2.97;;;;;;;19.02;58.28;99926.09;5114898;28;20044;-67
2022/05/15 02:53:37;;;;;;;14.15;3.33;;;;;;;19.06;59.05;99951.69;5108072;28;20119;-68
2022/05/15 02:56:10;;;;;;;7.10;3.28;;;;;;;19.04;58.54;99923.75;5095459;28;20143;-68
2022/05/15 02:58:37;;;;;;;8.30;3.83;;;;;;;19.05;58.29;99916.91;5094741;28;20127;-68
2022/05/15 03:01:04;;;;;;;8.82;2.97;;;;;;;19.08;58.52;99924.69;5109074;28;20083;-68
2022/05/15 03:03:32;;;;;;;7.00;3.40;;;;;;;18.91;59.01;99919.28;5115702;28;20456;-69
2022/05/15 03:05:59;;;;;;;11.00;3.72;;;;;;;18.97;58.97;99934.81;5115584;28;20414;-67
2022/05/15 03:08:26;;;;;;;10.02;3.67;;;;;;;18.93;58.48;99914.88;5111350;28;20069;-68
2022/05/15 03:10:53;;;;;;;7.68;2.60;;;;;;;18.91;58.58;99919.28;5114862;28;20052;-68
2022/05/15 03:13:20;;;;;;;8.23;4.97;;;;;;;19.07;58.53;99937.19;5095726;28;20673;-68
2022/05/15 03:15:46;;;;;;;10.15;2.92;;;;;;;19.08;58.34;99930.38;5114355;28;20455;-70
2022/05/15 03:18:13;;;;;;;10.15;3.47;;;;;;;19.17;58.26;99935.88;5114346;27;20062;-69
2022/05/15 03:20:40;;;;;;;11.32;3.97;;;;;;;19.04;58.66;99931.41;5115893;28;20139;-69
2022/05/15 03:23:07;;;;;;;4.20;2.22;;;;;;;18.99;58.82;99918.31;5111464;28;20131;-69
2022/05/15 03:25:35;;;;;;;5.32;2.83;;;;;;;18.86;58.73;99894.03;5147905;27;20075;-68
2022/05/15 03:28:04;;;;;;;10.73;2.95;;;;;;;19.05;58.43;99914.09;5112847;28;20146;-69
2022/05/15 03:30:31;;;;;;;8.00;3.78;;;;;;;18.75;59.05;99893.66;5111885;27;20134;-68
2022/05/15 03:32:57;;;;;;;5.47;3.17;;;;;;;19.05;58.82;99908.44;5115697;28;20070;-69
2022/05/15 03:35:24;;;;;;;9.68;3.80;;;;;;;18.99;59.03;99906.19;5113960;28;20078;-68
2022/05/15 03:37:51;;;;;;;10.00;4.25;;;;;;;18.83;59.32;99903.22;5112177;28;20409;-69
2022/05/15 03:40:18;;;;;;;9.93;5.35;;;;;;;18.90;58.85;99889.31;5115118;28;20496;-69
2022/05/15 03:42:45;;;;;;;8.63;2.80;;;;;;;18.97;58.85;99894.38;5114379;27;20062;-70
2022/05/15 03:45:13;;;;;;;7.45;2.35;;;;;;;18.99;58.94;99900.53;5093612;28;20052;-69
2022/05/15 03:47:51;;;;;;;7.13;3.50;;;;;;;18.87;59.08;99888.03;5108939;28;20048;-67
2022/05/15 03:50:21;;;;;;;8.80;3.55;;;;;;;19.06;58.56;99887.44;5114901;28;20082;-67
2022/05/15 03:52:48;;;;;;;18.23;3.90;;;;;;;19.06;59.17;99912.91;5108178;28;20131;-68
2022/05/15 03:55:15;;;;;;;13.23;4.60;;;;;;;18.93;59.66;99894.25;5094668;28;20490;-68
2022/05/15 03:57:43;;;;;;;11.40;5.22;;;;;;;18.95;59.76;99908.91;5094233;28;20146;-67
2022/05/15 04:00:15;;;;;;;6.57;2.85;;;;;;;18.78;60.13;99876.00;5112300;28;20071;-68
2022/05/15 04:02:43;;;;;;;14.32;3.72;;;;;;;19.08;59.14;99912.56;5112561;28;20559;-67
2022/05/15 04:05:10;;;;;;;10.15;3.15;;;;;;;19.00;59.32;99893.69;5107708;28;20079;-67
2022/05/15 04:07:42;;;;;;;17.75;4.43;;;;;;;19.08;59.30;99893.56;5112884;28;20043;-68
2022/05/15 04:10:10;;;;;;;10.05;3.83;;;;;;;19.07;59.42;99903.22;5111168;28;20542;-67
2022/05/15 04:12:38;;;;;;;20.77;4.85;;;;;;;19.13;59.00;99927.28;5109673;28;20130;-68
2022/05/15 04:15:05;;;;;;;7.05;3.70;;;;;;;19.00;59.15;99911.47;5114342;28;20123;-66
2022/05/15 04:17:32;;;;;;;8.13;2.83;;;;;;;18.57;61.93;99918.47;5113860;28;20090;-67
2022/05/15 04:20:06;;;;;;;13.57;4.70;;;;;;;18.55;62.60;99912.31;5113811;28;20517;-67
2022/05/15 04:22:33;;;;;;;19.05;5.43;;;;;;;18.40;63.31;99904.53;5110345;28;20523;-67
2022/05/15 04:25:00;;;;;;;9.43;3.50;;;;;;;18.35;63.79;99910.38;5100817;28;20126;-67
2022/05/15 04:27:27;;;;;;;15.70;3.63;;;;;;;18.22;63.99;99882.09;5113057;28;20143;-67
2022/05/15 04:29:53;;;;;;;5.55;3.42;;;;;;;17.98;66.31;99913.06;5112322;28;20126;-67
2022/05/15 04:32:20;;;;;;;13.32;3.35;;;;;;;18.13;65.73;99920.91;5112514;28;20597;-67
2022/05/15 04:34:47;;;;;;;15.00;6.55;;;;;;;18.08;66.37;99926.75;5110597;28;20074;-67
2022/05/15 04:37:14;;;;;;;8.63;3.25;;;;;;;18.09;66.06;99908.66;5111101;28;20516;-68
2022/05/15 04:39:41;;;;;;;18.17;4.68;;;;;;;18.21;65.53;99924.81;5113556;28;20127;-67
2022/05/15 04:42:09;;;;;;;18.50;4.70;;;;;;;18.42;65.10;99925.59;5112315;28;20139;-66
2022/05/15 04:44:36;;;;;;;9.82;3.78;;;;;;;18.39;65.44;99937.63;5111706;28;20574;-67
2022/05/15 04:47:03;;;;;;;19.23;4.03;;;;;;;18.24;65.65;99919.31;5112757;27;20138;-67
2022/05/15 04:49:30;;;;;;;5.28;3.55;;;;;;;18.43;65.69;99952.72;5111697;28;20466;-66
2022/05/15 04:51:59;;;;;;;7.05;3.75;;;;;;;18.52;64.95;99946.13;5102683;28;20043;-67
2022/05/15 04:54:26;;;;;;;11.15;3.25;;;;;;;18.52;64.84;99940.47;5100423;27;20493;-66
2022/05/15 04:56:53;;;;;;;13.20;8.70;;;;;;;18.64;64.91;99949.00;5106531;28;20575;-67
2022/05/15 04:59:20;;;;;;;18.10;10.70;;;;;;;18.35;65.73;99924.53;5109457;28;20086;-67
2022/05/15 05:01:47;;;;;;;9.55;8.45;;;;;;;18.65;65.23;99951.47;5111224;28;20126;-68
2022/05/15 05:04:14;;;;;;;17.75;8.98;;;;;;;18.33;65.36;99884.50;5111080;28;20138;-68
2022/05/15 05:06:41;;;;;;;10.80;9.20;;;;;;;18.56;65.77;99939.41;5112199;28;20086;-68
2022/05/15 05:09:10;;;;;;;9.98;8.35;;;;;;;18.55;65.97;99946.25;5102199;28;20066;-69
2022/05/15 05:11:37;;;;;;;16.23;8.77;;;;;;;18.52;66.03;99955.44;5111790;27;20497;-68
2022/05/15 05:14:04;;;;;;;11.57;8.23;;;;;;;18.65;65.54;99967.63;5112394;28;20170;-67
2022/05/15 05:16:33;;;;;;;14.02;9.88;;;;;;;18.59;66.32;99969.00;5112389;28;20139;-69
2022/05/15 05:19:01;;;;;;;14.70;8.07;;;;;;;18.74;66.05;99964.75;5112261;28;20135;-70
2022/05/15 05:21:28;;;;;;;15.02;8.38;;;;;;;18.32;66.12;99911.06;5113244;28;20134;-70
2022/05/15 05:23:55;;;;;;;11.90;9.10;;;;;;;18.69;66.14;99980.69;5110822;28;20135;-67
2022/05/15 05:26:22;;;;;;;16.15;8.98;;;;;;;18.68;66.19;99964.91;5111658;28;20134;-68
2022/05/15 05:28:49;;;;;;;15.40;7.80;;;;;;;18.74;66.16;99982.53;5112015;28;20075;-68
2022/05/15 05:31:16;;;;;;;9.40;7.70;;;;;;;18.64;66.45;99966.78;5112368;28;20082;-67
2022/05/15 05:33:43;;;;;;;17.20;9.02;;;;;;;18.41;67.23;99977.66;5112712;28;20044;-69
2022/05/15 05:36:11;;;;;;;16.23;9.75;;;;;;;18.58;66.39;99973.84;5111481;28;20048;-67
2022/05/15 05:38:38;;;;;;;8.73;7.80;;;;;;;18.52;66.37;99975.22;5110796;28;20075;-69
2022/05/15 05:41:05;;;;;;;14.95;7.88;;;;;;;18.64;66.33;100000.72;5107934;28;20050;-68
2022/05/15 05:43:32;;;;;;;8.10;7.32;;;;;;;18.52;66.54;99975.22;5109689;28;20130;-68
2022/05/15 05:46:00;;;;;;;8.02;3.47;;;;;;;18.42;67.04;99990.63;5111832;28;20048;-69
2022/05/15 05:48:27;;;;;;;16.00;6.60;;;;;;;18.32;67.52;99993.06;5110599;28;20501;-69
2022/05/15 05:50:53;;;;;;;12.80;9.68;;;;;;;18.38;67.07;99992.50;5113249;28;20082;-67
2022/05/15 05:53:21;;;;;;;16.08;8.30;;;;;;;18.56;66.48;100006.47;5110423;28;20131;-68
2022/05/15 05:55:48;;;;;;;11.13;8.52;;;;;;;18.52;66.74;100002.69;5113186;28;20074;-68
2022/05/15 05:58:15;;;;;;;7.07;6.68;;;;;;;18.38;66.94;99997.31;5109879;28;20166;-68
2022/05/15 06:00:42;;;;;;;13.15;7.45;;;;;;;18.35;66.51;100006.50;5109659;28;20051;-67
2022/05/15 06:05:55;;;;;;;6.75;6.18;;;;;;;18.50;66.17;100028.50;5092215;28;20131;-68
2022/05/15 06:08:22;;;;;;;11.80;7.95;;;;;;;18.50;65.98;100017.19;5100369;28;20127;-67
2022/05/15 06:10:49;;;;;;;12.85;8.10;;;;;;;18.34;66.25;100004.84;5096185;28;20131;-70
2022/05/15 06:13:16;;;;;;;7.22;6.53;;;;;;;18.41;66.12;100019.25;5109941;28;20139;-68
2022/05/15 06:15:42;;;;;;;11.77;7.55;;;;;;;18.46;65.63;100021.84;5109593;28;20087;-68
2022/05/15 06:18:09;;;;;;;18.77;8.80;;;;;;;18.54;65.49;100040.75;5108944;27;20047;-68
2022/05/15 06:20:36;;;;;;;9.40;6.50;;;;;;;18.40;65.67;100020.44;5115245;27;20090;-69
2022/05/15 06:23:04;;;;;;;17.27;10.63;;;;;;;18.20;66.07;100022.91;5112087;27;20079;-79
2022/05/15 06:25:32;;;;;;;15.23;8.45;;;;;;;18.44;65.48;100018.56;5108145;27;20554;-75
2022/05/15 06:27:58;;;;;;;10.15;8.85;;;;;;;17.89;66.21;99989.41;5112125;28;20094;-74
2022/05/15 06:30:25;;;;;;;8.45;7.72;;;;;;;18.18;65.69;100010.28;5149578;27;20090;-68
2022/05/15 06:32:52;;;;;;;14.15;8.10;;;;;;;18.39;65.25;100045.06;5114997;27;20467;-66
2022/05/15 06:35:20;;;;;;;7.07;6.40;;;;;;;18.17;65.46;100026.44;5115045;28;20577;-67
2022/05/15 06:37:47;;;;;;;9.63;5.07;;;;;;;18.22;65.35;100043.19;5114842;27;20075;-66
2022/05/15 06:40:15;;;;;;;7.90;6.00;;;;;;;18.15;65.67;100028.78;5116252;28;20105;-67
2022/05/15 06:42:43;;;;;;;8.80;6.85;;;;;;;18.31;65.28;100047.94;5113201;28;20040;-69
2022/05/15 06:45:12;;;;;;;9.27;7.53;;;;;;;18.30;64.93;100030.16;5110826;28;20036;-69
2022/05/15 06:47:39;;;;;;;7.10;6.45;;;;;;;18.43;64.36;100045.19;5114896;28;20494;-69
2022/05/15 06:50:08;;;;;;;11.45;7.10;;;;;;;18.55;63.59;100047.22;5114517;28;20130;-71
2022/05/15 06:52:36;;;;;;;8.45;7.75;;;;;;;18.53;63.45;100061.72;5114452;28;20130;-69
2022/05/15 06:55:12;;;;;;;12.23;10.23;;;;;;;18.40;62.83;100034.56;5110858;27;20039;-67
2022/05/15 06:57:40;;;;;;;7.97;7.20;;;;;;;18.23;63.78;100052.50;5109438;28;20083;-69
2022/05/15 07:00:13;;;;;;;17.77;16.38;;;;;;;17.73;65.89;100068.22;5116622;27;20083;-66
2022/05/15 07:02:41;;;;;;;20.23;18.85;;;;;;;17.23;67.46;100054.00;5111657;27;20043;-69
2022/05/15 07:05:14;;;;;;;21.10;19.52;;;;;;;17.10;68.39;100070.00;5117031;28;20040;-69
2022/05/15 07:07:44;;;;;;;21.75;20.48;;;;;;;17.00;70.72;100059.91;5112039;28;20093;-68
2022/05/15 07:10:13;;;;;;;27.80;25.60;;;;;;;17.39;70.53;100085.34;5115485;28;20101;-70
2022/05/15 07:12:41;;;;;;;37.20;35.08;;;;;;;17.47;69.89;100087.28;5112756;28;20043;-69
2022/05/15 07:15:08;;;;;;;11.60;2.45;;;;;;;17.42;70.07;100064.91;5110095;27;20071;-71
2022/05/15 07:17:35;;;;;;;4.65;2.38;;;;;;;17.23;70.74;100097.19;5111122;27;20105;-71
2022/05/15 07:20:03;;;;;;;17.70;16.40;;;;;;;16.91;71.30;100072.34;5113651;28;20051;-71
2022/05/15 07:22:31;;;;;;;39.10;37.00;;;;;;;16.58;71.97;100072.84;5111355;27;20075;-68
2022/05/15 07:24:58;;;;;;;42.75;39.95;;;;;;;16.57;71.95;100088.13;5124557;27;20083;-69
2022/05/15 07:27:25;;;;;;;42.20;39.97;;;;;;;16.56;73.00;100080.84;5113693;28;20059;-69
2022/05/15 07:29:52;;;;;;;42.35;39.70;;;;;;;16.74;73.47;100096.59;5116395;28;20043;-69
2022/05/15 07:32:19;;;;;;;60.15;56.97;;;;;;;16.83;73.31;100087.31;5109697;28;20131;-70
2022/05/15 07:34:46;;;;;;;36.88;34.78;;;;;;;16.94;72.91;100094.25;5111041;28;20127;-70
2022/05/15 07:37:13;;;;;;;38.25;35.70;;;;;;;16.99;72.96;100111.00;5128255;28;20047;-69
2022/05/15 07:39:39;;;;;;;35.35;33.05;;;;;;;16.79;72.89;100093.63;5133995;28;20040;-71
2022/05/15 07:42:07;;;;;;;36.13;33.50;;;;;;;16.76;73.56;100062.44;5132389;27;20048;-71
2022/05/15 07:44:34;;;;;;;30.73;28.38;;;;;;;17.15;73.54;100098.03;5133398;28;20028;-70
2022/05/15 07:47:01;;;;;;;24.33;22.10;;;;;;;17.56;73.69;100118.31;5135372;28;20546;-70
2022/05/15 07:49:28;;;;;;;21.27;19.75;;;;;;;17.55;73.49;100111.84;5137676;28;20047;-70
2022/05/15 07:51:54;;;;;;;21.10;19.63;;;;;;;17.56;73.51;100113.50;5138063;27;20084;-70
2022/05/15 07:54:21;;;;;;;21.90;20.40;;;;;;;17.69;73.78;100123.72;5123264;27;20089;-69
2022/05/15 07:56:48;;;;;;;21.85;20.50;;;;;;;17.50;73.47;100114.84;5108281;27;20138;-70
2022/05/15 07:59:15;;;;;;;23.30;21.88;;;;;;;17.71;73.12;100129.06;5109908;28;20142;-71
2022/05/15 08:01:42;;;;;;;22.85;21.17;;;;;;;17.75;73.00;100130.84;5112393;27;20122;-70
2022/05/15 08:04:10;;;;;;;23.25;21.13;;;;;;;17.61;73.00;100109.66;5110694;28;20130;-70
2022/05/15 08:09:22;;;;;;;20.20;18.67;;;;;;;17.61;73.80;100104.84;5111756;27;20070;-70
2022/05/15 08:11:49;;;;;;;20.77;19.38;;;;;;;17.81;73.97;100119.38;5106730;28;20047;-70
2022/05/15 08:14:17;;;;;;;18.52;16.98;;;;;;;17.89;73.38;100104.41;5118457;28;20032;-69
2022/05/15 08:16:44;;;;;;;19.85;14.60;;;;;;;18.06;73.83;100121.25;5118472;27;20047;-70
2022/05/15 08:24:42;;;;;;;12.82;11.82;;;;;;;18.46;73.19;100137.78;5109513;27;20086;-71
2022/05/15 08:27:09;;;;;;;14.50;13.02;;;;;;;18.50;72.57;100129.47;5111916;27;20517;-70
2022/05/15 08:29:38;;;;;;;14.52;13.30;;;;;;;18.53;72.66;100117.44;5107606;27;20075;-71
2022/05/15 08:32:06;;;;;;;11.60;10.63;;;;;;;19.06;72.42;100144.97;5104585;28;20087;-70
2022/05/15 08:34:33;;;;;;;12.18;11.15;;;;;;;19.17;71.84;100123.53;5106858;27;22363;-66
2022/05/15 08:37:03;;;;;;;14.50;11.60;;;;;;;19.10;71.02;100136.59;5107876;27;20151;-66
2022/05/15 08:39:31;;;;;;;17.73;11.88;;;;;;;19.12;71.02;100134.25;5107476;28;20517;-65
2022/05/15 08:42:21;;;;;;;18.92;16.98;;;;;;;19.00;71.11;100135.03;5107545;28;20097;-65
2022/05/15 08:44:54;;;;;;;10.77;9.85;;;;;;;18.99;71.23;100130.53;5108815;27;20043;-65
2022/05/15 08:47:42;;;;;;;11.27;9.77;;;;;;;19.11;70.96;100141.06;5108245;28;20541;-66
2022/05/15 08:50:14;;;;;;;10.82;10.02;;;;;;;19.35;69.86;100143.16;5100197;28;20139;-66
2022/05/15 08:53:03;;;;;;;13.13;12.23;;;;;;;19.54;69.96;100151.94;5105063;27;20575;-65
2022/05/15 08:55:32;;;;;;;11.15;10.25;;;;;;;19.63;69.25;100143.38;5109399;28;20044;-68
2022/05/15 08:58:16;;;;;;;11.90;10.88;;;;;;;19.84;68.63;100141.28;5109057;27;20059;-66
2022/05/15 09:00:47;;;;;;;9.27;8.48;;;;;;;20.26;68.02;100160.88;5108526;28;20126;-67
2022/05/15 09:03:17;;;;;;;8.60;7.50;;;;;;;20.57;67.44;100168.78;5100322;28;20138;-70
2022/05/15 09:06:07;;;;;;;8.70;7.72;;;;;;;20.78;66.54;100164.94;5126427;27;20079;-68
2022/05/15 09:08:59;;;;;;;10.73;8.07;;;;;;;20.82;65.36;100171.59;5110628;27;20423;-66
2022/05/15 09:11:53;;;;;;;7.88;7.43;;;;;;;21.00;65.41;100166.44;5104965;28;21016;-67
2022/05/15 09:14:38;;;;;;;13.45;8.52;;;;;;;21.16;64.37;100180.66;5109646;28;20493;-67
2022/05/15 09:17:44;;;;;;;8.10;7.40;;;;;;;21.73;64.31;100173.78;5102163;28;20127;-66
2022/05/15 09:20:13;;;;;;;14.65;8.07;;;;;;;21.99;63.05;100174.06;5104883;28;20085;-67
2022/05/15 09:22:54;;;;;;;8.45;7.63;;;;;;;22.00;62.39;100169.19;5105893;28;20052;-67
2022/05/15 09:25:22;;;;;;;;;;;;;;;22.31;62.73;100176.09;5110161;28;20077;-68
2022/05/15 09:28:12;;;;;;;8.85;7.97;;;;;;;22.48;61.87;100161.47;5108864;28;20015;-68
2022/05/15 09:30:42;;;;;;;12.20;7.10;;;;;;;23.01;60.93;100198.03;5099895;28;20090;-69
2022/05/15 09:33:33;;;;;;;8.32;7.63;;;;;;;23.39;60.47;100178.13;5108913;28;20104;-67
2022/05/15 09:36:15;;;;;;;7.30;6.65;;;;;;;23.54;60.04;100178.38;5113500;28;20161;-68
2022/05/15 09:38:41;;;;;;;6.85;4.68;;;;;;;23.18;58.70;100183.38;5112426;28;20481;-68
2022/05/15 09:44:35;;;;;;;7.50;2.90;;;;;;;22.82;57.47;100185.41;5101146;27;20059;-69
2022/05/15 09:47:20;;;;;;;5.38;3.00;;;;;;;23.01;58.13;100200.88;5097479;28;20134;-68
2022/05/15 09:49:48;;;;;;;4.43;2.03;;;;;;;23.09;56.94;100203.53;5114765;28;20055;-68
2022/05/15 09:52:24;;;;;;;11.15;7.07;;;;;;;22.75;57.44;100199.50;5113467;27;20134;-68
2022/05/15 09:54:51;;;;;;;8.18;2.95;;;;;;;22.58;56.79;100195.03;5111151;28;20177;-69
2022/05/15 09:57:24;;;;;;;6.43;2.15;;;;;;;22.84;56.52;100200.13;5115010;27;20135;-69
2022/05/15 09:59:56;;;;;;;8.25;1.92;;;;;;;23.05;55.82;100179.03;5113223;27;20122;-69
2022/05/15 10:02:46;;;;;;;10.82;3.17;;;;;;;23.10;55.25;100193.78;5103635;27;20076;-68
2022/05/15 10:05:34;;;;;;;6.03;2.42;;;;;;;22.54;55.02;100130.72;5112390;27;20043;-69
2022/05/15 10:08:21;;;;;;;4.32;1.40;;;;;;;23.11;54.83;100212.53;5113289;27;20044;-69
2022/05/15 10:10:59;;;;;;;7.72;1.85;;;;;;;22.97;54.32;100194.31;5110705;28;20498;-67
2022/05/15 10:13:36;;;;;;;7.60;1.80;;;;;;;23.06;53.75;100214.84;5106457;28;20132;-68
2022/05/15 10:16:13;;;;;;;5.13;1.70;;;;;;;22.77;53.60;100191.41;5109049;27;20081;-68
2022/05/15 10:18:50;;;;;;;9.10;2.05;;;;;;;22.68;53.77;100213.56;5108021;27;20096;-69
2022/05/15 10:21:22;;;;;;;2.50;1.73;;;;;;;22.91;54.22;100225.91;5112511;28;20076;-68
2022/05/15 10:24:00;;;;;;;6.65;2.03;;;;;;;22.76;53.37;100226.75;5115164;28;20071;-67
2022/05/15 10:27:02;;;;;;;6.65;1.55;;;;;;;22.62;54.25;100240.66;5115914;28;20079;-67
2022/05/15 10:29:38;;;;;;;5.95;1.95;;;;;;;22.53;54.17;100237.16;5111698;28;20510;-68
2022/05/15 10:32:29;;;;;;;7.10;2.13;;;;;;;22.51;53.91;100231.03;5114032;27;20047;-68
2022/05/15 10:34:57;;;;;;;5.13;1.88;;;;;;;22.42;53.77;100237.72;5111328;28;20810;-68
2022/05/15 10:37:45;;;;;;;9.95;2.33;;;;;;;22.79;54.06;100234.56;5109696;27;20090;-69
2022/05/15 10:40:21;;;;;;;8.18;1.75;;;;;;;22.97;53.56;100225.63;5104269;28;20098;-68
2022/05/15 10:43:36;;;;;;;6.60;1.73;;;;;;;22.96;53.58;100261.81;5107466;28;20040;-70
2022/05/15 10:46:24;;;;;;;3.47;1.75;;;;;;;22.84;53.31;100254.22;5092420;28;20126;-68
2022/05/15 10:49:10;;;;;;;6.43;2.17;;;;;;;23.06;53.68;100254.72;5091383;28;20510;-67
2022/05/15 10:51:40;;;;;;;6.00;1.63;;;;;;;23.15;53.22;100264.72;5109068;27;20043;-68
2022/05/15 10:57:24;;;;;;;4.22;1.98;;;;;;;23.28;52.83;100268.25;5109734;27;20507;-67
2022/05/15 11:00:19;;;;;;;6.05;2.08;;;;;;;23.22;53.40;100261.19;5107150;28;20055;-68
2022/05/15 11:03:05;;;;;;;14.10;2.53;;;;;;;23.44;53.26;100259.63;5110951;27;20056;-69
2022/05/15 11:05:37;;;;;;;8.30;2.35;;;;;;;23.78;53.28;100257.91;5103963;28;20348;-68
2022/05/15 11:08:36;;;;;;;4.07;2.53;;;;;;;23.99;52.62;100270.91;5115081;28;20135;-69
2022/05/15 11:11:24;;;;;;;14.98;2.67;;;;;;;23.82;52.90;100280.78;5102069;27;20563;-68
2022/05/15 11:13:56;;;;;;;5.40;2.95;;;;;;;23.69;52.41;100288.66;5107633;28;20074;-68
2022/05/15 11:16:34;;;;;;;10.95;2.60;;;;;;;23.55;52.52;100286.31;5113171;27;20082;-69
2022/05/15 11:19:30;;;;;;;8.70;2.58;;;;;;;24.02;52.27;100273.03;5111176;28;20094;-69
2022/05/15 11:22:02;;;;;;;5.70;1.90;;;;;;;24.08;51.36;100265.81;5112120;27;20047;-69
2022/05/15 11:25:22;;;;;;;7.03;2.28;;;;;;;23.99;51.51;100273.78;5105047;28;20217;-69
2022/05/15 11:28:06;;;;;;;5.35;1.98;;;;;;;23.68;52.22;100269.91;5064070;28;20040;-69
2022/05/15 11:30:38;;;;;;;12.52;2.58;;;;;;;23.56;51.72;100252.97;5064678;28;20067;-68
2022/05/15 11:33:24;;;;;;;10.80;1.98;;;;;;;23.24;51.25;100253.09;5095671;28;20145;-69
2022/05/15 11:36:12;;;;;;;5.82;2.38;;;;;;;23.41;51.50;100266.88;5111914;28;20399;-69
2022/05/15 11:39:13;;;;;;;5.30;1.63;;;;;;;23.66;50.70;100255.19;5109996;27;20123;-67
2022/05/15 11:41:43;;;;;;;6.72;2.47;;;;;;;23.83;51.25;100269.00;5110751;28;20089;-69
2022/05/15 11:44:30;;;;;;;;;;;;;;;24.04;51.64;100279.19;5112337;27;20126;-69
2022/05/15 11:46:59;;;;;;;5.07;1.77;;;;;;;24.29;50.05;100277.59;5112637;27;20035;-68
2022/05/15 11:49:40;;;;;;;6.43;2.00;;;;;;;24.26;49.83;100277.53;5109079;28;20130;-68
2022/05/15 11:52:08;;;;;;;7.70;1.63;;;;;;;24.11;49.48;100290.72;5111437;28;20522;-68
2022/05/15 11:54:45;;;;;;;4.95;1.83;;;;;;;23.96;49.33;100265.97;5109141;28;20116;-68
2022/05/15 11:57:30;;;;;;;5.57;2.17;;;;;;;24.23;48.77;100273.41;5110361;27;20075;-69
2022/05/15 12:00:00;;;;;;;7.35;2.92;;;;;;;24.21;48.76;100270.13;5108078;27;20051;-69
2022/05/15 12:02:29;;;;;;;3.33;2.17;;;;;;;24.55;48.50;100270.34;5107219;27;20108;-69
2022/05/15 12:05:21;;;;;;;3.97;2.28;;;;;;;25.20;48.26;100275.03;5109316;27;20085;-68